Time;durP1;ratioP1;P1;durP2;ratioP2;P2;SDS_P1;SDS_P2;PMS_P1;PMS_P2;Temp;Humidity;BMP_temperature;BMP_pressure;BME280_temperature;BME280_humidity;BME280_pressure;Samples;Min_cycle;Max_cycle;Signal;HPM_P1;HPM_P2
2023/07/07 00:00:39;;;;;;;4.80;3.97;;;17.70;66.00;;;;;;5004849;28;20600;-63
2023/07/07 00:03:05;;;;;;;3.67;3.25;;;17.70;66.00;;;;;;5007475;28;20541;-63
2023/07/07 00:05:31;;;;;;;6.60;3.53;;;17.60;66.00;;;;;;5006570;28;20030;-64
2023/07/07 00:07:57;;;;;;;6.40;3.97;;;17.50;66.20;;;;;;5006670;28;20413;-62
2023/07/07 00:10:23;;;;;;;7.13;3.90;;;17.50;66.50;;;;;;5004516;28;20175;-62
2023/07/07 00:12:49;;;;;;;5.80;4.22;;;17.40;66.70;;;;;;5004430;28;20436;-63
2023/07/07 00:15:15;;;;;;;4.75;3.90;;;17.40;67.00;;;;;;5003864;28;20573;-63
2023/07/07 00:17:41;;;;;;;5.57;3.80;;;17.30;67.10;;;;;;5004992;28;20049;-62
2023/07/07 00:20:09;;;;;;;4.75;3.80;;;17.30;67.10;;;;;;5005444;28;20524;-63
2023/07/07 00:22:35;;;;;;;3.83;3.42;;;17.20;67.40;;;;;;5004850;28;20093;-63
2023/07/07 00:25:02;;;;;;;4.85;3.83;;;17.10;67.70;;;;;;5006094;28;20035;-63
2023/07/07 00:27:28;;;;;;;4.95;3.92;;;17.10;68.00;;;;;;5004321;28;20070;-63
2023/07/07 00:29:53;;;;;;;7.07;3.75;;;17.00;68.00;;;;;;5002251;28;20042;-64
2023/07/07 00:32:19;;;;;;;5.38;3.70;;;16.90;68.10;;;;;;5004536;28;20046;-64
2023/07/07 00:34:45;;;;;;;4.75;3.22;;;16.90;68.10;;;;;;5005096;28;20034;-63
2023/07/07 00:37:10;;;;;;;6.05;3.85;;;16.90;68.10;;;;;;5006368;28;20120;-63
2023/07/07 00:39:36;;;;;;;5.95;3.55;;;16.90;68.40;;;;;;5006382;28;20536;-64
2023/07/07 00:42:02;;;;;;;4.10;3.28;;;17.00;68.50;;;;;;5005416;28;20034;-63
2023/07/07 00:44:50;;;;;;;5.43;3.53;;;17.00;68.40;;;;;;5003899;28;20037;-63
2023/07/07 00:47:16;;;;;;;4.88;2.95;;;17.00;68.50;;;;;;5005766;28;20038;-63
2023/07/07 00:49:42;;;;;;;4.18;3.60;;;16.90;68.10;;;;;;5005689;28;20038;-63
2023/07/07 00:52:07;;;;;;;4.45;3.67;;;16.90;68.10;;;;;;5003983;28;20112;-63
2023/07/07 00:54:35;;;;;;;5.28;3.40;;;16.90;68.00;;;;;;5001649;28;20555;-63
2023/07/07 00:57:02;;;;;;;4.00;3.47;;;16.80;68.00;;;;;;5005435;28;20041;-63
2023/07/07 00:59:39;;;;;;;4.05;3.65;;;16.80;68.30;;;;;;5004206;28;20033;-64
2023/07/07 01:02:10;;;;;;;3.75;3.40;;;16.70;68.80;;;;;;5005928;28;20039;-63
2023/07/07 01:04:37;;;;;;;4.05;3.35;;;16.70;68.60;;;;;;5005875;28;20129;-63
2023/07/07 01:07:11;;;;;;;3.90;3.50;;;16.70;68.30;;;;;;5004961;28;20569;-63
2023/07/07 01:09:36;;;;;;;4.53;3.47;;;16.70;68.50;;;;;;5004840;28;20038;-62
2023/07/07 01:12:02;;;;;;;4.57;3.78;;;16.70;68.30;;;;;;5004985;28;20109;-63
2023/07/07 01:14:30;;;;;;;4.10;3.65;;;16.60;68.30;;;;;;5005305;28;20116;-63
2023/07/07 01:17:28;;;;;;;3.75;3.30;;;16.50;68.60;;;;;;5003346;28;20076;-63
2023/07/07 01:20:00;;;;;;;6.03;3.40;;;16.50;69.10;;;;;;5005060;28;20034;-63
2023/07/07 01:22:53;;;;;;;4.00;3.50;;;16.50;68.20;;;;;;5004842;28;20552;-62
2023/07/07 01:25:57;;;;;;;5.20;3.50;;;16.40;69.00;;;;;;5004086;28;20038;-63
2023/07/07 01:28:31;;;;;;;3.90;3.20;;;16.30;70.00;;;;;;5006750;28;20120;-63
2023/07/07 01:31:06;;;;;;;5.72;4.00;;;16.30;69.10;;;;;;5003003;28;20030;-62
2023/07/07 01:33:33;;;;;;;5.63;4.13;;;16.20;69.20;;;;;;5003546;28;20595;-61
2023/07/07 01:35:58;;;;;;;6.68;3.58;;;16.20;68.80;;;;;;5005015;28;20390;-63
2023/07/07 01:38:40;;;;;;;5.07;3.92;;;16.20;68.90;;;;;;5002706;28;20034;-64
2023/07/07 01:41:28;;;;;;;3.85;3.45;;;16.10;69.90;;;;;;5004128;28;20042;-63
2023/07/07 01:44:03;;;;;;;4.78;3.45;;;16.00;70.30;;;;;;4991795;28;20221;-63
2023/07/07 01:46:39;;;;;;;4.05;3.40;;;16.00;70.10;;;;;;5002899;28;20042;-63
2023/07/07 01:49:09;;;;;;;4.38;3.40;;;16.00;69.50;;;;;;5005780;28;20045;-63
2023/07/07 01:51:51;;;;;;;6.25;3.78;;;15.90;70.20;;;;;;5004258;28;20512;-62
2023/07/07 01:54:18;;;;;;;4.88;3.50;;;15.90;70.60;;;;;;5003420;28;20084;-61
2023/07/07 01:56:46;;;;;;;4.75;3.67;;;15.90;69.80;;;;;;5004194;28;20344;-63
2023/07/07 01:59:13;;;;;;;5.75;3.50;;;15.90;70.00;;;;;;5005201;28;20029;-61
2023/07/07 02:01:39;;;;;;;5.47;3.67;;;15.90;70.00;;;;;;5002346;28;20037;-61
2023/07/07 02:04:04;;;;;;;4.63;3.35;;;15.90;70.00;;;;;;5003710;28;20524;-60
2023/07/07 02:06:30;;;;;;;4.72;3.50;;;16.00;70.00;;;;;;5000243;28;20050;-63
2023/07/07 02:08:55;;;;;;;6.22;3.92;;;16.00;69.80;;;;;;4998390;28;20113;-63
2023/07/07 02:11:21;;;;;;;4.07;3.47;;;16.00;69.80;;;;;;5000225;28;20764;-63
2023/07/07 02:13:47;;;;;;;4.53;3.55;;;16.10;69.70;;;;;;5002507;28;20481;-63
2023/07/07 02:16:12;;;;;;;4.55;3.63;;;16.10;69.50;;;;;;5000352;28;20325;-62
2023/07/07 02:18:38;;;;;;;4.05;3.50;;;16.10;69.60;;;;;;5001891;28;20486;-61
2023/07/07 02:21:05;;;;;;;4.03;3.28;;;16.10;69.50;;;;;;5002248;28;20061;-63
2023/07/07 02:23:31;;;;;;;5.10;3.75;;;16.00;69.50;;;;;;5001752;28;20042;-63
2023/07/07 02:25:57;;;;;;;4.85;3.78;;;16.00;70.50;;;;;;5001041;28;20038;-63
2023/07/07 02:28:23;;;;;;;6.22;3.85;;;15.90;69.70;;;;;;4999622;28;20641;-63
2023/07/07 02:30:48;;;;;;;6.25;3.83;;;15.90;69.90;;;;;;5000060;28;20044;-63
2023/07/07 02:33:15;;;;;;;5.25;4.38;;;15.80;70.00;;;;;;5001737;28;20505;-63
2023/07/07 02:35:41;;;;;;;4.80;4.10;;;15.80;70.40;;;;;;5004010;28;20040;-63
2023/07/07 02:38:06;;;;;;;4.43;3.97;;;15.70;70.50;;;;;;5003368;28;20252;-63
2023/07/07 02:40:32;;;;;;;5.13;4.10;;;15.70;70.60;;;;;;5002596;28;20042;-63
2023/07/07 02:42:58;;;;;;;6.00;3.95;;;15.60;70.60;;;;;;5001190;28;20048;-63
2023/07/07 02:45:23;;;;;;;3.75;3.38;;;15.60;70.70;;;;;;5001316;28;20054;-63
2023/07/07 02:47:49;;;;;;;5.00;3.95;;;15.60;70.70;;;;;;5003651;28;20501;-63
2023/07/07 02:50:15;;;;;;;5.50;3.97;;;15.50;70.90;;;;;;5002766;28;20034;-62
2023/07/07 02:52:40;;;;;;;6.90;3.88;;;15.50;71.10;;;;;;5004291;28;20076;-63
2023/07/07 02:55:06;;;;;;;6.25;3.80;;;15.50;71.10;;;;;;5002308;28;20042;-63
2023/07/07 02:57:32;;;;;;;5.13;4.00;;;15.60;71.30;;;;;;5003657;28;20504;-63
2023/07/07 02:59:58;;;;;;;4.88;4.00;;;15.60;71.30;;;;;;5001420;28;20030;-63
2023/07/07 03:02:23;;;;;;;6.57;3.95;;;15.50;71.30;;;;;;5002529;28;20509;-63
2023/07/07 03:04:50;;;;;;;5.85;3.78;;;15.50;71.30;;;;;;5001929;28;20042;-63
2023/07/07 03:07:15;;;;;;;4.32;3.88;;;15.50;71.10;;;;;;5004025;28;20073;-63
2023/07/07 03:09:41;;;;;;;5.05;3.97;;;15.50;71.30;;;;;;5002891;28;20497;-63
2023/07/07 03:12:07;;;;;;;4.40;4.00;;;15.50;71.30;;;;;;5001724;28;20061;-63
2023/07/07 03:14:33;;;;;;;7.60;4.35;;;15.50;71.40;;;;;;5002047;28;20037;-63
2023/07/07 03:16:58;;;;;;;6.55;4.32;;;15.40;71.50;;;;;;5002463;28;20041;-63
2023/07/07 03:19:24;;;;;;;5.82;4.28;;;15.40;71.80;;;;;;5002739;28;20041;-62
2023/07/07 03:21:54;;;;;;;5.82;4.05;;;15.30;71.80;;;;;;5002537;28;20124;-63
2023/07/07 03:24:20;;;;;;;6.30;4.25;;;15.20;72.10;;;;;;5002042;28;20088;-63
2023/07/07 03:26:46;;;;;;;5.20;4.15;;;15.20;72.00;;;;;;5003562;28;20124;-62
2023/07/07 03:29:12;;;;;;;5.90;4.22;;;15.10;72.30;;;;;;5003469;28;20038;-63
2023/07/07 03:31:38;;;;;;;5.13;4.30;;;15.00;72.40;;;;;;5001987;28;20034;-63
2023/07/07 03:34:05;;;;;;;5.18;4.18;;;15.00;72.60;;;;;;5003143;28;20470;-63
2023/07/07 03:36:33;;;;;;;6.95;4.38;;;15.00;72.90;;;;;;5001868;28;20116;-63
2023/07/07 03:38:58;;;;;;;4.75;4.13;;;14.90;73.00;;;;;;5000822;28;20121;-63
2023/07/07 03:41:26;;;;;;;8.10;4.57;;;14.90;73.00;;;;;;5000828;28;20136;-63
2023/07/07 03:43:53;;;;;;;4.25;3.85;;;14.90;73.30;;;;;;5002936;28;20596;-63
2023/07/07 03:46:21;;;;;;;6.50;4.15;;;14.80;73.30;;;;;;5001142;28;20069;-63
2023/07/07 03:48:48;;;;;;;6.50;4.55;;;14.80;73.50;;;;;;5000158;28;20493;-64
2023/07/07 03:51:16;;;;;;;7.88;4.03;;;14.80;73.60;;;;;;5001621;28;20037;-63
2023/07/07 03:53:42;;;;;;;7.72;4.18;;;14.80;73.90;;;;;;5001872;28;20038;-63
2023/07/07 03:56:08;;;;;;;6.38;3.83;;;14.80;74.00;;;;;;5001633;28;20052;-63
2023/07/07 03:58:34;;;;;;;4.55;4.10;;;14.60;74.00;;;;;;5001497;28;20026;-62
2023/07/07 04:01:05;;;;;;;5.03;4.22;;;14.70;74.20;;;;;;4999205;28;20033;-63
2023/07/07 04:03:31;;;;;;;5.82;3.90;;;14.70;74.90;;;;;;5001947;28;20104;-63
2023/07/07 04:05:57;;;;;;;5.05;3.78;;;14.70;74.50;;;;;;4998986;28;20037;-61
2023/07/07 04:08:24;;;;;;;6.30;4.68;;;14.70;74.60;;;;;;5001173;28;20045;-63
2023/07/07 04:11:18;;;;;;;4.43;3.90;;;14.70;74.70;;;;;;5001054;28;20118;-63
2023/07/07 04:13:45;;;;;;;7.22;4.13;;;14.80;76.10;;;;;;4999834;28;20033;-63
2023/07/07 04:16:16;;;;;;;5.88;4.50;;;14.80;74.60;;;;;;5001295;28;20318;-63
2023/07/07 04:18:43;;;;;;;5.78;4.10;;;14.80;75.00;;;;;;5000775;28;20033;-63
2023/07/07 04:21:14;;;;;;;6.35;4.40;;;14.80;75.10;;;;;;5018200;28;20046;-61
2023/07/07 04:23:41;;;;;;;5.95;4.32;;;14.80;75.40;;;;;;5002409;28;20038;-62
2023/07/07 04:26:09;;;;;;;5.72;4.22;;;14.80;75.20;;;;;;5001898;28;20113;-63
2023/07/07 04:28:36;;;;;;;6.47;4.25;;;14.90;75.40;;;;;;4995691;28;20034;-62
2023/07/07 04:31:03;;;;;;;7.22;4.28;;;14.90;75.40;;;;;;4993822;28;20046;-63
2023/07/07 04:33:30;;;;;;;5.15;3.67;;;15.00;75.30;;;;;;4998573;28;20049;-63
2023/07/07 04:35:58;;;;;;;8.73;4.40;;;15.10;75.30;;;;;;5004282;28;20467;-62
2023/07/07 04:38:30;;;;;;;5.40;4.20;;;15.10;75.30;;;;;;5000032;28;20042;-63
2023/07/07 04:41:09;;;;;;;6.25;4.18;;;15.20;75.20;;;;;;4997409;28;20040;-63
2023/07/07 04:43:38;;;;;;;5.75;4.38;;;15.30;75.80;;;;;;4998704;28;20164;-64
2023/07/07 04:46:05;;;;;;;7.00;4.80;;;15.30;75.80;;;;;;4999028;28;20525;-63
2023/07/07 04:48:31;;;;;;;6.47;4.65;;;15.20;74.90;;;;;;5002095;28;20425;-63
2023/07/07 04:50:58;;;;;;;7.47;4.80;;;15.30;75.20;;;;;;5000939;28;20391;-63
2023/07/07 04:53:25;;;;;;;5.63;4.63;;;15.30;75.30;;;;;;4999749;28;20065;-62
2023/07/07 04:55:51;;;;;;;7.53;4.75;;;15.30;75.60;;;;;;5003480;28;20338;-63
2023/07/07 04:58:16;;;;;;;6.78;4.85;;;15.30;75.70;;;;;;5002719;28;20503;-63
2023/07/07 05:00:42;;;;;;;6.20;4.75;;;15.30;75.80;;;;;;5001269;28;20034;-63
2023/07/07 05:03:08;;;;;;;5.95;4.97;;;15.30;76.00;;;;;;5003510;28;20463;-63
2023/07/07 05:05:36;;;;;;;6.63;4.55;;;15.30;76.10;;;;;;5000610;28;20035;-63
2023/07/07 05:08:02;;;;;;;7.65;5.35;;;15.30;76.40;;;;;;5001580;28;20030;-64
2023/07/07 05:10:27;;;;;;;6.88;4.90;;;15.40;76.40;;;;;;4998429;28;20089;-63
2023/07/07 05:12:53;;;;;;;5.50;4.40;;;15.40;76.40;;;;;;5003408;28;20085;-63
2023/07/07 05:15:19;;;;;;;5.25;4.43;;;15.50;76.50;;;;;;5003136;28;20080;-63
2023/07/07 05:17:44;;;;;;;7.90;4.88;;;15.50;76.50;;;;;;5004259;28;20662;-63
2023/07/07 05:20:10;;;;;;;6.50;4.85;;;15.60;76.40;;;;;;5001897;28;20038;-63
2023/07/07 05:22:36;;;;;;;7.57;4.72;;;15.70;76.30;;;;;;5001432;28;20038;-63
2023/07/07 05:25:02;;;;;;;8.18;4.90;;;15.80;76.20;;;;;;4998941;28;20382;-62
2023/07/07 05:27:27;;;;;;;8.15;4.97;;;15.90;76.10;;;;;;5001550;28;20064;-63
2023/07/07 05:29:53;;;;;;;9.80;5.22;;;16.00;75.80;;;;;;5002653;28;20037;-63
2023/07/07 05:32:18;;;;;;;7.25;5.00;;;16.10;75.50;;;;;;5002035;28;20064;-63
2023/07/07 05:34:44;;;;;;;6.57;5.30;;;16.20;75.40;;;;;;4999787;28;20081;-63
2023/07/07 05:37:10;;;;;;;6.18;5.20;;;16.30;75.40;;;;;;5002411;28;20453;-63
2023/07/07 05:39:35;;;;;;;7.60;4.80;;;16.50;75.40;;;;;;5002879;28;20026;-63
2023/07/07 05:42:01;;;;;;;5.50;4.90;;;16.50;75.10;;;;;;5003228;28;20138;-63
2023/07/07 05:44:26;;;;;;;6.22;5.32;;;16.60;74.80;;;;;;5001320;28;20065;-63
2023/07/07 05:46:52;;;;;;;8.23;5.68;;;16.80;74.90;;;;;;5000484;28;20056;-63
2023/07/07 05:49:17;;;;;;;6.03;5.10;;;16.90;74.90;;;;;;4999298;28;20041;-63
2023/07/07 05:51:43;;;;;;;7.38;5.13;;;17.00;74.60;;;;;;5002298;28;20096;-63
2023/07/07 05:54:09;;;;;;;8.18;5.93;;;17.10;74.30;;;;;;5002961;28;20387;-63
2023/07/07 05:56:34;;;;;;;6.07;5.15;;;17.20;74.20;;;;;;4995774;28;20224;-63
2023/07/07 05:59:02;;;;;;;8.55;5.47;;;17.30;74.60;;;;;;5002213;28;20449;-65
2023/07/07 06:01:28;;;;;;;7.97;6.10;;;17.40;74.50;;;;;;5002653;28;20077;-63
2023/07/07 06:03:53;;;;;;;6.30;5.32;;;17.50;74.00;;;;;;5002398;28;20310;-63
2023/07/07 06:06:19;;;;;;;7.70;5.97;;;17.60;73.90;;;;;;5002426;28;20045;-64
2023/07/07 06:08:44;;;;;;;12.45;6.55;;;17.70;73.90;;;;;;5001329;28;20051;-63
2023/07/07 06:11:10;;;;;;;8.13;6.15;;;17.80;73.80;;;;;;5002087;28;20045;-63
2023/07/07 06:13:36;;;;;;;6.82;5.82;;;17.80;73.70;;;;;;5002710;28;20098;-62
2023/07/07 06:16:01;;;;;;;8.52;5.72;;;17.90;73.30;;;;;;5002549;28;20116;-64
2023/07/07 06:18:27;;;;;;;7.65;6.00;;;18.00;73.40;;;;;;5001999;28;20069;-62
2023/07/07 06:20:59;;;;;;;7.55;6.03;;;18.10;73.30;;;;;;5001843;28;20026;-64
2023/07/07 06:23:29;;;;;;;7.18;6.03;;;18.20;73.20;;;;;;4998583;28;20026;-63
2023/07/07 06:25:55;;;;;;;10.63;6.25;;;18.30;73.00;;;;;;5002172;28;20030;-64
2023/07/07 06:28:21;;;;;;;8.63;5.85;;;18.30;72.80;;;;;;5001999;28;20069;-63
2023/07/07 06:30:48;;;;;;;9.77;6.25;;;18.50;73.00;;;;;;4999762;28;22014;-64
2023/07/07 06:33:14;;;;;;;8.07;6.03;;;18.50;72.80;;;;;;5000071;28;20292;-63
2023/07/07 06:35:41;;;;;;;10.05;6.20;;;18.60;72.60;;;;;;5003455;28;20046;-63
2023/07/07 06:38:07;;;;;;;9.35;5.80;;;18.70;72.60;;;;;;5003898;28;20033;-63
2023/07/07 06:40:34;;;;;;;6.95;6.05;;;18.80;72.60;;;;;;5000992;28;20137;-63
2023/07/07 06:43:00;;;;;;;8.10;5.82;;;18.90;72.50;;;;;;5000324;28;20037;-62
2023/07/07 06:45:25;;;;;;;8.98;5.78;;;19.00;72.00;;;;;;4998983;28;20536;-64
2023/07/07 06:47:51;;;;;;;7.57;5.65;;;19.00;72.00;;;;;;5002485;28;20044;-63
2023/07/07 06:50:26;;;;;;;8.00;6.22;;;19.10;72.00;;;;;;4996702;28;20057;-63
2023/07/07 06:52:51;;;;;;;11.20;5.57;;;19.30;72.00;;;;;;5000286;28;20040;-63
2023/07/07 06:55:17;;;;;;;8.32;6.22;;;19.30;71.40;;;;;;5000652;28;20046;-63
2023/07/07 06:57:43;;;;;;;11.00;6.32;;;19.40;71.30;;;;;;5002035;28;20053;-63
2023/07/07 07:00:09;;;;;;;8.45;6.28;;;19.50;71.30;;;;;;5003858;28;20037;-63
2023/07/07 07:02:34;;;;;;;6.90;5.97;;;19.60;71.30;;;;;;4999198;28;20290;-63
2023/07/07 07:05:00;;;;;;;7.28;6.15;;;19.70;70.90;;;;;;4999339;28;20045;-63
2023/07/07 07:07:25;;;;;;;8.00;6.72;;;19.80;70.60;;;;;;4997394;28;20054;-63
2023/07/07 07:09:51;;;;;;;9.32;6.82;;;19.80;70.40;;;;;;5001934;28;20042;-63
2023/07/07 07:12:17;;;;;;;10.05;6.32;;;19.90;70.30;;;;;;5001449;28;20042;-63
2023/07/07 07:14:42;;;;;;;7.60;6.80;;;20.00;70.00;;;;;;4999731;28;20424;-62
2023/07/07 07:17:08;;;;;;;7.65;6.32;;;20.10;69.50;;;;;;5000082;28;20053;-61
2023/07/07 07:19:34;;;;;;;9.13;6.50;;;20.10;69.20;;;;;;5001349;28;20033;-63
2023/07/07 07:21:59;;;;;;;9.20;6.63;;;20.20;69.20;;;;;;5001953;28;20049;-63
2023/07/07 07:24:25;;;;;;;8.90;6.95;;;20.30;69.20;;;;;;5002293;28;20045;-63
2023/07/07 07:26:51;;;;;;;9.65;6.80;;;20.40;68.90;;;;;;5001616;28;20040;-63
2023/07/07 07:29:16;;;;;;;8.40;6.10;;;20.50;68.60;;;;;;4999423;28;20045;-63
2023/07/07 07:31:43;;;;;;;9.35;7.15;;;20.60;68.40;;;;;;5000838;28;20042;-63
2023/07/07 07:34:30;;;;;;;7.20;6.50;;;20.70;67.80;;;;;;4999245;28;20181;-63
2023/07/07 07:36:58;;;;;;;10.55;6.35;;;20.80;67.10;;;;;;5001887;28;20048;-63
2023/07/07 07:39:23;;;;;;;7.32;5.93;;;20.90;67.80;;;;;;5002115;28;20038;-62
2023/07/07 07:41:51;;;;;;;8.55;6.50;;;21.00;67.20;;;;;;5000991;28;20038;-63
2023/07/07 07:44:18;;;;;;;10.50;5.80;;;21.10;67.00;;;;;;5002335;28;20440;-63
2023/07/07 07:46:45;;;;;;;8.55;5.40;;;21.20;66.70;;;;;;5001839;28;20477;-64
2023/07/07 07:49:11;;;;;;;7.45;5.35;;;21.30;66.70;;;;;;5002376;28;20053;-63
2023/07/07 07:51:38;;;;;;;5.60;4.90;;;21.40;66.40;;;;;;4999162;28;20129;-63
2023/07/07 07:54:09;;;;;;;7.80;5.97;;;21.60;66.00;;;;;;5001287;28;20049;-63
2023/07/07 07:56:35;;;;;;;7.63;5.72;;;21.70;65.70;;;;;;5001086;28;20054;-63
2023/07/07 07:59:01;;;;;;;8.57;5.07;;;21.80;65.50;;;;;;5001533;28;20065;-63
2023/07/07 08:01:27;;;;;;;6.65;4.88;;;21.90;64.30;;;;;;4998418;28;20917;-61
2023/07/07 08:03:54;;;;;;;4.15;3.70;;;22.00;63.30;;;;;;5002851;28;20412;-63
2023/07/07 08:06:19;;;;;;;4.25;3.85;;;22.10;63.20;;;;;;5001795;28;20100;-63
2023/07/07 08:08:45;;;;;;;6.38;4.53;;;22.20;63.20;;;;;;5004109;28;20517;-63
2023/07/07 08:11:19;;;;;;;7.18;4.57;;;22.30;62.90;;;;;;5007082;28;20057;-63
2023/07/07 08:13:45;;;;;;;5.43;4.43;;;22.50;62.10;;;;;;5007513;28;20044;-63
2023/07/07 08:16:11;;;;;;;5.05;3.88;;;22.60;62.70;;;;;;5005819;28;20029;-62
2023/07/07 08:18:38;;;;;;;8.07;4.88;;;22.70;62.50;;;;;;5005183;28;20115;-63
2023/07/07 08:21:04;;;;;;;5.63;4.85;;;22.80;60.80;;;;;;5004903;28;20034;-62
2023/07/07 08:23:30;;;;;;;6.22;4.60;;;22.90;60.80;;;;;;5007028;28;20187;-62
2023/07/07 08:25:56;;;;;;;5.25;4.32;;;23.00;60.90;;;;;;5004593;28;20026;-63
2023/07/07 08:28:21;;;;;;;5.40;4.00;;;23.20;60.80;;;;;;5007523;28;20045;-63
2023/07/07 08:30:47;;;;;;;5.70;4.43;;;23.30;60.60;;;;;;5005872;28;20083;-63
2023/07/07 08:33:13;;;;;;;8.02;4.30;;;23.40;60.50;;;;;;5005576;28;20030;-62
2023/07/07 08:35:39;;;;;;;5.30;4.20;;;23.50;60.30;;;;;;5005131;28;20095;-62
2023/07/07 08:38:04;;;;;;;5.78;4.80;;;23.70;60.50;;;;;;5005809;28;20218;-63
2023/07/07 08:40:45;;;;;;;5.63;4.45;;;23.80;60.00;;;;;;5004898;28;20049;-63
2023/07/07 08:43:11;;;;;;;7.05;3.72;;;23.90;58.20;;;;;;5004641;28;20053;-63
2023/07/07 08:45:40;;;;;;;5.68;4.25;;;24.10;59.10;;;;;;5005767;28;20041;-62
2023/07/07 08:48:26;;;;;;;12.20;4.35;;;24.30;58.90;;;;;;5006541;28;20049;-62
2023/07/07 08:50:56;;;;;;;7.18;3.85;;;24.40;58.80;;;;;;5005321;28;20037;-62
2023/07/07 08:53:57;;;;;;;5.38;4.43;;;24.50;58.40;;;;;;5005967;28;20513;-63
2023/07/07 08:56:47;;;;;;;5.35;3.97;;;24.70;56.70;;;;;;5007095;28;20042;-62
2023/07/07 08:59:41;;;;;;;6.15;4.32;;;24.80;56.30;;;;;;5006473;28;20034;-62
2023/07/07 09:02:28;;;;;;;5.35;4.43;;;24.90;56.60;;;;;;5007512;28;20079;-63
2023/07/07 09:05:11;;;;;;;4.82;4.00;;;25.00;57.10;;;;;;5006688;28;20069;-62
2023/07/07 09:07:47;;;;;;;6.57;3.75;;;25.10;56.80;;;;;;5007983;28;20026;-63
2023/07/07 09:10:46;;;;;;;5.70;3.80;;;25.30;57.40;;;;;;5005631;28;20022;-63
2023/07/07 09:13:21;;;;;;;4.57;3.80;;;25.50;57.10;;;;;;5002537;28;20517;-63
2023/07/07 09:16:10;;;;;;;7.18;4.07;;;25.70;57.00;;;;;;5006389;28;20084;-62
2023/07/07 09:18:43;;;;;;;5.68;4.05;;;25.80;55.80;;;;;;5001093;28;20517;-62
2023/07/07 09:21:23;;;;;;;5.85;3.90;;;26.00;56.00;;;;;;5006703;28;20452;-63
2023/07/07 09:23:53;;;;;;;7.03;4.30;;;26.20;54.60;;;;;;5005631;28;20034;-62
2023/07/07 09:26:25;;;;;;;6.70;3.60;;;26.30;54.70;;;;;;5005541;28;22068;-62
2023/07/07 09:28:55;;;;;;;5.55;3.97;;;26.50;54.70;;;;;;5004526;28;20445;-63
2023/07/07 09:31:43;;;;;;;5.07;3.75;;;26.60;54.00;;;;;;5003093;28;20034;-63
2023/07/07 09:34:13;;;;;;;5.03;3.60;;;26.80;52.90;;;;;;5003628;28;20132;-62
2023/07/07 09:36:50;;;;;;;3.97;3.58;;;26.90;52.90;;;;;;5004402;28;20037;-62
2023/07/07 09:39:19;;;;;;;5.15;3.55;;;27.10;51.00;;;;;;5006096;28;20049;-63
2023/07/07 09:41:53;;;;;;;4.18;3.58;;;27.20;50.50;;;;;;5003807;28;20056;-64
2023/07/07 09:44:48;;;;;;;5.35;3.80;;;27.30;49.90;;;;;;4997833;28;20509;-62
2023/07/07 09:47:22;;;;;;;5.10;3.72;;;27.50;49.10;;;;;;5005355;28;20052;-63
2023/07/07 09:49:57;;;;;;;3.95;3.45;;;27.50;48.90;;;;;;5003314;28;20042;-63
2023/07/07 09:52:36;;;;;;;4.13;3.72;;;27.70;49.20;;;;;;5003133;28;20037;-63
2023/07/07 09:55:10;;;;;;;4.13;3.72;;;27.80;48.10;;;;;;5003482;28;20132;-64
2023/07/07 09:57:40;;;;;;;5.30;3.80;;;27.90;48.50;;;;;;5004317;28;20903;-64
2023/07/07 10:00:07;;;;;;;5.40;4.25;;;28.00;47.80;;;;;;5001419;28;20037;-63
2023/07/07 10:02:34;;;;;;;6.95;4.20;;;28.10;47.30;;;;;;5004612;28;20042;-63
2023/07/07 10:05:03;;;;;;;4.93;3.92;;;28.20;47.80;;;;;;5001360;28;20074;-64
2023/07/07 10:07:35;;;;;;;4.68;3.90;;;28.30;46.90;;;;;;5003445;28;20156;-64
2023/07/07 10:10:03;;;;;;;4.65;4.13;;;28.40;45.90;;;;;;5004283;28;20057;-63
2023/07/07 10:12:29;;;;;;;4.65;3.67;;;28.40;46.10;;;;;;5003509;28;20332;-63
2023/07/07 10:14:55;;;;;;;5.68;4.13;;;28.50;46.10;;;;;;5004184;28;20343;-63
2023/07/07 10:17:23;;;;;;;4.30;3.90;;;28.60;46.00;;;;;;5004430;28;20046;-63
2023/07/07 10:19:56;;;;;;;4.38;3.92;;;28.70;45.70;;;;;;5005282;28;20037;-63
2023/07/07 10:22:22;;;;;;;6.45;4.00;;;28.80;45.10;;;;;;5002659;28;20512;-62
2023/07/07 10:24:48;;;;;;;5.20;4.15;;;28.80;45.10;;;;;;5001907;28;20038;-63
2023/07/07 10:27:20;;;;;;;4.85;4.10;;;28.90;44.60;;;;;;5003992;28;20521;-63
2023/07/07 10:29:46;;;;;;;5.18;4.03;;;28.90;42.00;;;;;;5002553;28;20045;-64
2023/07/07 10:32:20;;;;;;;5.68;4.10;;;29.00;44.00;;;;;;5002551;28;20037;-63
2023/07/07 10:34:53;;;;;;;4.70;4.13;;;29.00;42.90;;;;;;5004075;28;20034;-63
2023/07/07 10:37:24;;;;;;;6.45;3.78;;;29.10;43.30;;;;;;5004075;28;20551;-64
2023/07/07 10:39:58;;;;;;;8.50;4.40;;;29.20;43.20;;;;;;5002339;28;20062;-64
2023/07/07 10:42:25;;;;;;;5.00;4.25;;;29.20;42.50;;;;;;4999545;28;20037;-64
2023/07/07 10:44:52;;;;;;;5.03;4.28;;;29.30;42.90;;;;;;5002885;28;20088;-62
2023/07/07 10:47:32;;;;;;;4.60;3.70;;;29.30;42.50;;;;;;5002782;28;20113;-62
2023/07/07 10:50:00;;;;;;;5.47;4.10;;;29.40;40.00;;;;;;5001771;28;20029;-63
2023/07/07 10:52:40;;;;;;;6.32;4.40;;;29.40;41.30;;;;;;5001537;28;20069;-63
2023/07/07 10:55:40;;;;;;;4.55;3.90;;;29.40;41.20;;;;;;5003323;28;20038;-63
2023/07/07 10:58:44;;;;;;;4.88;3.92;;;29.50;41.30;;;;;;5002825;28;20513;-63
2023/07/07 11:01:18;;;;;;;5.35;4.05;;;29.50;41.00;;;;;;5003866;28;20156;-63
2023/07/07 11:04:08;;;;;;;6.70;3.85;;;29.60;41.30;;;;;;5001765;28;20044;-64
2023/07/07 11:06:52;;;;;;;4.32;3.63;;;29.60;41.20;;;;;;5002088;28;20056;-63
2023/07/07 11:09:23;;;;;;;4.82;4.07;;;29.70;40.10;;;;;;5003498;28;20049;-63
2023/07/07 11:12:18;;;;;;;6.28;4.00;;;29.70;39.10;;;;;;5001444;28;20076;-62
2023/07/07 11:15:01;;;;;;;6.70;4.00;;;29.80;38.80;;;;;;5003377;28;20042;-63
2023/07/07 11:17:56;;;;;;;5.15;3.63;;;29.70;40.60;;;;;;5003252;28;20041;-64
2023/07/07 11:20:30;;;;;;;4.53;3.50;;;29.80;39.90;;;;;;4951500;28;1112234;-63
2023/07/07 11:23:22;;;;;;;6.57;3.63;;;29.80;39.90;;;;;;5002672;28;20053;-63
2023/07/07 11:25:59;;;;;;;5.60;3.70;;;29.90;39.10;;;;;;5003052;28;20026;-63
2023/07/07 11:28:40;;;;;;;5.07;4.03;;;29.90;39.40;;;;;;5001303;28;20037;-64
2023/07/07 11:31:11;;;;;;;4.95;3.67;;;29.90;39.30;;;;;;5001931;28;20497;-63
2023/07/07 11:33:59;;;;;;;5.28;3.55;;;30.00;38.90;;;;;;5002855;28;20034;-63
2023/07/07 11:37:04;;;;;;;4.53;3.53;;;30.00;39.40;;;;;;5004093;28;20045;-63
2023/07/07 11:40:07;;;;;;;4.80;3.70;;;30.00;39.60;;;;;;5003627;28;20033;-64
2023/07/07 11:43:10;;;;;;;8.00;3.78;;;30.10;39.50;;;;;;5001518;28;20382;-63
2023/07/07 11:46:07;;;;;;;5.15;3.30;;;30.10;38.80;;;;;;5003111;28;20031;-64
2023/07/07 11:48:38;;;;;;;4.68;3.28;;;30.20;39.00;;;;;;5003314;28;20088;-64
2023/07/07 11:51:17;;;;;;;5.30;3.70;;;30.20;38.40;;;;;;5002233;28;20038;-62
2023/07/07 11:54:14;;;;;;;4.25;3.22;;;30.30;38.40;;;;;;5003079;28;20029;-63
2023/07/07 11:57:17;;;;;;;4.57;3.35;;;30.30;38.70;;;;;;4985212;28;20085;-64
2023/07/07 12:00:10;;;;;;;5.05;3.40;;;30.40;38.30;;;;;;5004426;28;20033;-63
2023/07/07 12:03:18;;;;;;;6.10;3.80;;;30.40;38.00;;;;;;5001164;28;20036;-64
2023/07/07 12:05:46;;;;;;;4.18;3.35;;;30.40;37.90;;;;;;5004180;28;20033;-63
2023/07/07 12:08:17;;;;;;;6.60;3.47;;;30.50;38.30;;;;;;4999497;28;20408;-63
2023/07/07 12:10:48;;;;;;;3.53;3.22;;;30.50;37.90;;;;;;5000386;28;20031;-63
2023/07/07 12:13:25;;;;;;;5.10;3.55;;;30.50;37.40;;;;;;5003118;28;20087;-64
2023/07/07 12:15:59;;;;;;;4.10;3.40;;;30.60;37.40;;;;;;5001628;28;20042;-63
2023/07/07 12:18:30;;;;;;;4.90;3.42;;;30.60;36.90;;;;;;5005064;28;20041;-63
2023/07/07 12:21:07;;;;;;;4.60;3.67;;;30.60;37.10;;;;;;5001998;28;20042;-63
2023/07/07 12:23:37;;;;;;;6.57;3.85;;;30.70;36.80;;;;;;5003409;28;20092;-64
2023/07/07 12:26:19;;;;;;;4.57;3.83;;;30.60;35.80;;;;;;5000535;28;20555;-62
2023/07/07 12:28:52;;;;;;;3.97;3.35;;;30.60;35.60;;;;;;5000222;28;20137;-63
2023/07/07 12:31:19;;;;;;;5.65;3.42;;;30.60;36.50;;;;;;5002648;28;20056;-62
2023/07/07 12:33:51;;;;;;;4.38;3.60;;;30.60;36.50;;;;;;5018557;28;20033;-64
2023/07/07 12:36:17;;;;;;;4.50;3.70;;;30.60;36.90;;;;;;5000337;28;20049;-63
2023/07/07 12:38:47;;;;;;;5.72;3.42;;;30.70;36.90;;;;;;4986522;28;20086;-63
2023/07/07 12:41:17;;;;;;;6.45;3.38;;;30.70;36.60;;;;;;4999595;28;20151;-63
2023/07/07 12:43:59;;;;;;;3.83;3.20;;;30.70;36.30;;;;;;4995177;28;20056;-64
2023/07/07 12:46:29;;;;;;;5.95;3.42;;;30.70;36.40;;;;;;5001572;28;20069;-63
2023/07/07 12:49:02;;;;;;;4.32;3.50;;;30.70;36.20;;;;;;5002109;28;20045;-63
2023/07/07 12:51:35;;;;;;;5.68;3.67;;;30.70;36.20;;;;;;5002053;28;20105;-64
2023/07/07 12:54:01;;;;;;;8.25;3.45;;;30.70;36.00;;;;;;5002495;28;20034;-64
2023/07/07 12:56:29;;;;;;;4.22;3.25;;;30.70;36.00;;;;;;5002962;28;20037;-64
2023/07/07 12:58:59;;;;;;;5.07;3.20;;;30.70;35.80;;;;;;5003742;28;20049;-65
2023/07/07 13:01:40;;;;;;;4.72;3.90;;;30.70;35.30;;;;;;5005570;28;20108;-64
2023/07/07 13:04:12;;;;;;;5.00;3.75;;;30.70;33.70;;;;;;5003866;28;20405;-64